sensor_id;sensor_type;location;lat;lon;timestamp;P1;durP1;ratioP1;P2;durP2;ratioP2
82948;SDS011;72736;50.236;18.876;2024-01-07T00:01:00;27.10;;;10.30;;
82948;SDS011;72736;50.236;18.876;2024-01-07T00:06:07;19.60;;;9.00;;
82948;SDS011;72736;50.236;18.876;2024-01-07T00:11:13;25.10;;;9.70;;
82948;SDS011;72736;50.236;18.876;2024-01-07T00:16:19;16.60;;;6.90;;
82948;SDS011;72736;50.236;18.876;2024-01-07T00:21:25;24.70;;;10.30;;
82948;SDS011;72736;50.236;18.876;2024-01-07T00:26:31;12.40;;;6.00;;
82948;SDS011;72736;50.236;18.876;2024-01-07T00:31:37;16.30;;;6.50;;
82948;SDS011;72736;50.236;18.876;2024-01-07T00:36:43;19.50;;;9.00;;
82948;SDS011;72736;50.236;18.876;2024-01-07T00:41:50;17.50;;;7.10;;
82948;SDS011;72736;50.236;18.876;2024-01-07T00:46:55;14.50;;;5.90;;
82948;SDS011;72736;50.236;18.876;2024-01-07T00:52:01;10.00;;;3.40;;
82948;SDS011;72736;50.236;18.876;2024-01-07T00:57:07;13.40;;;6.20;;
82948;SDS011;72736;50.236;18.876;2024-01-07T01:02:14;17.10;;;6.30;;
82948;SDS011;72736;50.236;18.876;2024-01-07T01:07:19;6.60;;;2.50;;
82948;SDS011;72736;50.236;18.876;2024-01-07T01:12:25;11.40;;;5.10;;
82948;SDS011;72736;50.236;18.876;2024-01-07T01:17:31;13.00;;;5.60;;
82948;SDS011;72736;50.236;18.876;2024-01-07T01:22:37;12.10;;;5.20;;
82948;SDS011;72736;50.236;18.876;2024-01-07T01:27:43;12.00;;;5.10;;
82948;SDS011;72736;50.236;18.876;2024-01-07T01:32:49;15.90;;;5.40;;
82948;SDS011;72736;50.236;18.876;2024-01-07T01:37:55;13.40;;;4.90;;
82948;SDS011;72736;50.236;18.876;2024-01-07T01:43:01;8.30;;;3.70;;
82948;SDS011;72736;50.236;18.876;2024-01-07T01:48:07;5.70;;;2.40;;
82948;SDS011;72736;50.236;18.876;2024-01-07T01:53:13;9.80;;;5.10;;
82948;SDS011;72736;50.236;18.876;2024-01-07T01:58:19;7.30;;;3.50;;
82948;SDS011;72736;50.236;18.876;2024-01-07T02:03:25;8.90;;;3.90;;
82948;SDS011;72736;50.236;18.876;2024-01-07T02:08:31;10.60;;;4.40;;
82948;SDS011;72736;50.236;18.876;2024-01-07T02:13:38;8.60;;;3.30;;
82948;SDS011;72736;50.236;18.876;2024-01-07T02:18:44;9.20;;;3.60;;
82948;SDS011;72736;50.236;18.876;2024-01-07T02:23:51;10.50;;;3.60;;
82948;SDS011;72736;50.236;18.876;2024-01-07T02:28:56;6.20;;;2.40;;
82948;SDS011;72736;50.236;18.876;2024-01-07T02:34:02;7.40;;;2.80;;
82948;SDS011;72736;50.236;18.876;2024-01-07T02:39:08;11.80;;;3.90;;
82948;SDS011;72736;50.236;18.876;2024-01-07T02:44:14;8.50;;;3.00;;
82948;SDS011;72736;50.236;18.876;2024-01-07T02:49:20;2.90;;;1.40;;
82948;SDS011;72736;50.236;18.876;2024-01-07T02:54:26;8.10;;;3.00;;
82948;SDS011;72736;50.236;18.876;2024-01-07T02:59:31;7.80;;;2.80;;
82948;SDS011;72736;50.236;18.876;2024-01-07T03:04:37;5.60;;;2.20;;
82948;SDS011;72736;50.236;18.876;2024-01-07T03:09:43;9.00;;;3.40;;
82948;SDS011;72736;50.236;18.876;2024-01-07T03:14:50;7.00;;;3.10;;
82948;SDS011;72736;50.236;18.876;2024-01-07T03:19:56;6.50;;;2.20;;
82948;SDS011;72736;50.236;18.876;2024-01-07T03:25:02;10.00;;;3.10;;
82948;SDS011;72736;50.236;18.876;2024-01-07T03:35:14;6.40;;;2.80;;
82948;SDS011;72736;50.236;18.876;2024-01-07T03:40:20;3.70;;;1.70;;
82948;SDS011;72736;50.236;18.876;2024-01-07T03:45:26;4.10;;;1.40;;
82948;SDS011;72736;50.236;18.876;2024-01-07T03:50:32;9.20;;;3.60;;
82948;SDS011;72736;50.236;18.876;2024-01-07T03:55:37;4.70;;;2.90;;
82948;SDS011;72736;50.236;18.876;2024-01-07T04:00:43;7.90;;;3.10;;
82948;SDS011;72736;50.236;18.876;2024-01-07T04:05:49;7.60;;;2.10;;
82948;SDS011;72736;50.236;18.876;2024-01-07T04:10:55;4.50;;;2.20;;
82948;SDS011;72736;50.236;18.876;2024-01-07T04:16:01;4.90;;;2.00;;
82948;SDS011;72736;50.236;18.876;2024-01-07T04:21:08;7.50;;;3.40;;
82948;SDS011;72736;50.236;18.876;2024-01-07T04:26:14;10.10;;;3.60;;
82948;SDS011;72736;50.236;18.876;2024-01-07T04:31:20;7.50;;;3.10;;
82948;SDS011;72736;50.236;18.876;2024-01-07T04:36:26;8.10;;;3.70;;
82948;SDS011;72736;50.236;18.876;2024-01-07T04:41:33;13.90;;;5.00;;
82948;SDS011;72736;50.236;18.876;2024-01-07T04:46:39;8.20;;;3.60;;
82948;SDS011;72736;50.236;18.876;2024-01-07T04:51:44;10.50;;;3.80;;
82948;SDS011;72736;50.236;18.876;2024-01-07T04:56:50;7.20;;;3.00;;
82948;SDS011;72736;50.236;18.876;2024-01-07T05:01:56;4.60;;;2.10;;
82948;SDS011;72736;50.236;18.876;2024-01-07T05:07:02;4.40;;;2.30;;
82948;SDS011;72736;50.236;18.876;2024-01-07T05:12:08;6.20;;;2.90;;
82948;SDS011;72736;50.236;18.876;2024-01-07T05:17:13;6.30;;;3.20;;
82948;SDS011;72736;50.236;18.876;2024-01-07T05:22:19;7.00;;;2.90;;
82948;SDS011;72736;50.236;18.876;2024-01-07T05:27:25;6.40;;;2.80;;
82948;SDS011;72736;50.236;18.876;2024-01-07T05:32:31;7.50;;;3.00;;
82948;SDS011;72736;50.236;18.876;2024-01-07T05:37:36;8.70;;;2.80;;
82948;SDS011;72736;50.236;18.876;2024-01-07T05:42:42;10.80;;;2.90;;
82948;SDS011;72736;50.236;18.876;2024-01-07T05:47:48;10.20;;;3.30;;
82948;SDS011;72736;50.236;18.876;2024-01-07T05:52:54;8.00;;;3.10;;
82948;SDS011;72736;50.236;18.876;2024-01-07T05:58:00;14.20;;;4.60;;
82948;SDS011;72736;50.236;18.876;2024-01-07T06:03:05;10.30;;;3.90;;
82948;SDS011;72736;50.236;18.876;2024-01-07T06:08:14;20.30;;;6.10;;
82948;SDS011;72736;50.236;18.876;2024-01-07T06:13:20;11.20;;;5.40;;
82948;SDS011;72736;50.236;18.876;2024-01-07T06:18:25;9.10;;;3.90;;
82948;SDS011;72736;50.236;18.876;2024-01-07T06:23:33;12.00;;;3.80;;
82948;SDS011;72736;50.236;18.876;2024-01-07T06:28:39;10.10;;;3.80;;
82948;SDS011;72736;50.236;18.876;2024-01-07T06:33:45;9.70;;;4.20;;
82948;SDS011;72736;50.236;18.876;2024-01-07T06:38:51;9.40;;;4.40;;
82948;SDS011;72736;50.236;18.876;2024-01-07T06:43:56;7.90;;;3.50;;
82948;SDS011;72736;50.236;18.876;2024-01-07T06:49:02;12.00;;;4.40;;
82948;SDS011;72736;50.236;18.876;2024-01-07T06:54:08;5.80;;;2.70;;
82948;SDS011;72736;50.236;18.876;2024-01-07T06:59:17;8.80;;;3.80;;
82948;SDS011;72736;50.236;18.876;2024-01-07T07:04:22;6.20;;;2.70;;
82948;SDS011;72736;50.236;18.876;2024-01-07T07:09:28;7.40;;;3.50;;
82948;SDS011;72736;50.236;18.876;2024-01-07T07:14:34;10.40;;;4.70;;
82948;SDS011;72736;50.236;18.876;2024-01-07T07:19:39;7.90;;;3.50;;
82948;SDS011;72736;50.236;18.876;2024-01-07T07:24:47;6.70;;;2.90;;
82948;SDS011;72736;50.236;18.876;2024-01-07T07:29:54;8.10;;;3.40;;
82948;SDS011;72736;50.236;18.876;2024-01-07T07:35:00;3.30;;;1.10;;
82948;SDS011;72736;50.236;18.876;2024-01-07T07:40:08;12.30;;;3.50;;
82948;SDS011;72736;50.236;18.876;2024-01-07T07:45:16;9.70;;;3.90;;
82948;SDS011;72736;50.236;18.876;2024-01-07T07:50:22;11.00;;;4.20;;
82948;SDS011;72736;50.236;18.876;2024-01-07T07:55:28;14.70;;;5.50;;
82948;SDS011;72736;50.236;18.876;2024-01-07T08:00:33;66.00;;;20.20;;
82948;SDS011;72736;50.236;18.876;2024-01-07T08:05:40;16.70;;;6.40;;
82948;SDS011;72736;50.236;18.876;2024-01-07T08:10:45;18.70;;;5.90;;
82948;SDS011;72736;50.236;18.876;2024-01-07T08:15:51;17.20;;;6.70;;
82948;SDS011;72736;50.236;18.876;2024-01-07T08:20:57;9.30;;;4.00;;
82948;SDS011;72736;50.236;18.876;2024-01-07T08:26:03;6.50;;;3.90;;
82948;SDS011;72736;50.236;18.876;2024-01-07T08:31:09;10.20;;;4.20;;
82948;SDS011;72736;50.236;18.876;2024-01-07T08:36:15;3.00;;;1.50;;
82948;SDS011;72736;50.236;18.876;2024-01-07T08:41:21;11.70;;;4.40;;
82948;SDS011;72736;50.236;18.876;2024-01-07T08:46:27;13.20;;;5.30;;
82948;SDS011;72736;50.236;18.876;2024-01-07T08:51:33;10.50;;;5.20;;
82948;SDS011;72736;50.236;18.876;2024-01-07T08:56:38;11.20;;;4.60;;
82948;SDS011;72736;50.236;18.876;2024-01-07T09:01:44;12.30;;;5.80;;
82948;SDS011;72736;50.236;18.876;2024-01-07T09:06:50;11.10;;;4.30;;
82948;SDS011;72736;50.236;18.876;2024-01-07T09:11:56;12.20;;;5.20;;
82948;SDS011;72736;50.236;18.876;2024-01-07T09:17:03;7.10;;;3.50;;
82948;SDS011;72736;50.236;18.876;2024-01-07T09:22:08;15.50;;;5.40;;
82948;SDS011;72736;50.236;18.876;2024-01-07T09:27:15;10.30;;;4.10;;
82948;SDS011;72736;50.236;18.876;2024-01-07T09:32:20;38.80;;;14.40;;
82948;SDS011;72736;50.236;18.876;2024-01-07T09:37:26;25.10;;;9.80;;
82948;SDS011;72736;50.236;18.876;2024-01-07T09:42:32;31.80;;;9.90;;
82948;SDS011;72736;50.236;18.876;2024-01-07T09:47:38;32.50;;;10.00;;
82948;SDS011;72736;50.236;18.876;2024-01-07T09:52:46;24.70;;;8.00;;
82948;SDS011;72736;50.236;18.876;2024-01-07T09:57:55;16.80;;;6.10;;
82948;SDS011;72736;50.236;18.876;2024-01-07T10:03:01;63.20;;;16.10;;
82948;SDS011;72736;50.236;18.876;2024-01-07T10:08:08;48.10;;;11.50;;
82948;SDS011;72736;50.236;18.876;2024-01-07T10:13:15;31.20;;;9.80;;
82948;SDS011;72736;50.236;18.876;2024-01-07T10:18:21;43.90;;;12.80;;
82948;SDS011;72736;50.236;18.876;2024-01-07T10:23:27;25.90;;;8.30;;
82948;SDS011;72736;50.236;18.876;2024-01-07T10:28:33;16.50;;;6.10;;
82948;SDS011;72736;50.236;18.876;2024-01-07T10:33:39;34.40;;;11.60;;
82948;SDS011;72736;50.236;18.876;2024-01-07T10:38:45;15.30;;;5.20;;
82948;SDS011;72736;50.236;18.876;2024-01-07T10:43:51;22.20;;;8.70;;
82948;SDS011;72736;50.236;18.876;2024-01-07T10:49:00;17.40;;;6.90;;
82948;SDS011;72736;50.236;18.876;2024-01-07T10:54:08;18.70;;;5.90;;
82948;SDS011;72736;50.236;18.876;2024-01-07T10:59:20;19.90;;;6.80;;
82948;SDS011;72736;50.236;18.876;2024-01-07T11:04:29;14.40;;;5.30;;
82948;SDS011;72736;50.236;18.876;2024-01-07T11:09:46;23.10;;;7.50;;
82948;SDS011;72736;50.236;18.876;2024-01-07T11:14:59;11.60;;;5.10;;
82948;SDS011;72736;50.236;18.876;2024-01-07T11:20:06;19.40;;;7.80;;
82948;SDS011;72736;50.236;18.876;2024-01-07T11:25:31;13.80;;;5.50;;
82948;SDS011;72736;50.236;18.876;2024-01-07T11:30:39;12.40;;;5.60;;
82948;SDS011;72736;50.236;18.876;2024-01-07T11:46:15;10.90;;;4.40;;
82948;SDS011;72736;50.236;18.876;2024-01-07T11:51:21;6.70;;;3.30;;
82948;SDS011;72736;50.236;18.876;2024-01-07T11:56:27;19.90;;;6.90;;
82948;SDS011;72736;50.236;18.876;2024-01-07T12:01:33;10.80;;;4.10;;
82948;SDS011;72736;50.236;18.876;2024-01-07T12:06:39;18.50;;;6.00;;
82948;SDS011;72736;50.236;18.876;2024-01-07T12:11:45;16.10;;;5.40;;
82948;SDS011;72736;50.236;18.876;2024-01-07T12:16:51;13.50;;;5.40;;
82948;SDS011;72736;50.236;18.876;2024-01-07T12:22:02;18.30;;;6.60;;
82948;SDS011;72736;50.236;18.876;2024-01-07T12:27:10;17.70;;;7.20;;
82948;SDS011;72736;50.236;18.876;2024-01-07T12:32:19;14.30;;;5.20;;
82948;SDS011;72736;50.236;18.876;2024-01-07T12:37:27;10.80;;;4.50;;
82948;SDS011;72736;50.236;18.876;2024-01-07T12:42:35;17.90;;;5.60;;
82948;SDS011;72736;50.236;18.876;2024-01-07T12:47:42;11.80;;;4.50;;
82948;SDS011;72736;50.236;18.876;2024-01-07T12:52:50;10.80;;;4.30;;
82948;SDS011;72736;50.236;18.876;2024-01-07T12:57:55;22.00;;;7.80;;
82948;SDS011;72736;50.236;18.876;2024-01-07T13:03:02;7.70;;;3.50;;
82948;SDS011;72736;50.236;18.876;2024-01-07T13:08:10;11.10;;;5.10;;
82948;SDS011;72736;50.236;18.876;2024-01-07T13:13:16;46.50;;;13.50;;
82948;SDS011;72736;50.236;18.876;2024-01-07T13:18:22;33.70;;;10.90;;
82948;SDS011;72736;50.236;18.876;2024-01-07T13:23:29;16.30;;;5.70;;
82948;SDS011;72736;50.236;18.876;2024-01-07T13:28:35;16.90;;;6.00;;
82948;SDS011;72736;50.236;18.876;2024-01-07T13:33:41;13.70;;;6.10;;
82948;SDS011;72736;50.236;18.876;2024-01-07T13:38:47;18.50;;;8.60;;
82948;SDS011;72736;50.236;18.876;2024-01-07T13:43:54;18.90;;;8.20;;
82948;SDS011;72736;50.236;18.876;2024-01-07T13:49:00;17.90;;;8.00;;
82948;SDS011;72736;50.236;18.876;2024-01-07T13:54:06;32.00;;;11.10;;
82948;SDS011;72736;50.236;18.876;2024-01-07T13:59:13;18.70;;;8.10;;
82948;SDS011;72736;50.236;18.876;2024-01-07T14:04:20;26.70;;;9.40;;
82948;SDS011;72736;50.236;18.876;2024-01-07T14:09:27;18.10;;;6.50;;
82948;SDS011;72736;50.236;18.876;2024-01-07T14:14:35;22.20;;;9.10;;
82948;SDS011;72736;50.236;18.876;2024-01-07T14:19:41;32.60;;;12.00;;
82948;SDS011;72736;50.236;18.876;2024-01-07T14:24:49;32.10;;;15.30;;
82948;SDS011;72736;50.236;18.876;2024-01-07T14:29:56;25.50;;;9.50;;
82948;SDS011;72736;50.236;18.876;2024-01-07T14:40:07;25.00;;;9.10;;
82948;SDS011;72736;50.236;18.876;2024-01-07T14:45:14;25.80;;;9.90;;
82948;SDS011;72736;50.236;18.876;2024-01-07T14:50:20;6.00;;;3.60;;
82948;SDS011;72736;50.236;18.876;2024-01-07T14:55:38;25.30;;;10.30;;
82948;SDS011;72736;50.236;18.876;2024-01-07T15:00:44;20.40;;;8.50;;
82948;SDS011;72736;50.236;18.876;2024-01-07T15:05:50;13.40;;;5.90;;
82948;SDS011;72736;50.236;18.876;2024-01-07T15:10:55;33.40;;;12.80;;
82948;SDS011;72736;50.236;18.876;2024-01-07T15:16:02;17.70;;;7.60;;
82948;SDS011;72736;50.236;18.876;2024-01-07T15:21:09;33.30;;;11.40;;
82948;SDS011;72736;50.236;18.876;2024-01-07T15:26:15;30.50;;;11.10;;
82948;SDS011;72736;50.236;18.876;2024-01-07T15:31:21;19.40;;;7.50;;
82948;SDS011;72736;50.236;18.876;2024-01-07T15:36:27;21.70;;;9.00;;
82948;SDS011;72736;50.236;18.876;2024-01-07T15:41:33;20.70;;;8.80;;
82948;SDS011;72736;50.236;18.876;2024-01-07T15:46:39;9.10;;;4.60;;
82948;SDS011;72736;50.236;18.876;2024-01-07T15:51:44;13.90;;;6.80;;
82948;SDS011;72736;50.236;18.876;2024-01-07T15:56:50;16.30;;;7.40;;
82948;SDS011;72736;50.236;18.876;2024-01-07T16:01:58;11.50;;;5.40;;
82948;SDS011;72736;50.236;18.876;2024-01-07T16:07:04;16.40;;;6.70;;
82948;SDS011;72736;50.236;18.876;2024-01-07T16:12:10;15.90;;;6.70;;
82948;SDS011;72736;50.236;18.876;2024-01-07T16:17:18;12.30;;;5.50;;
82948;SDS011;72736;50.236;18.876;2024-01-07T16:22:25;19.10;;;8.50;;
82948;SDS011;72736;50.236;18.876;2024-01-07T16:27:33;10.10;;;3.90;;
82948;SDS011;72736;50.236;18.876;2024-01-07T16:32:39;17.10;;;7.30;;
82948;SDS011;72736;50.236;18.876;2024-01-07T16:37:47;24.20;;;7.80;;
82948;SDS011;72736;50.236;18.876;2024-01-07T16:42:54;46.10;;;14.50;;
82948;SDS011;72736;50.236;18.876;2024-01-07T16:48:03;48.10;;;15.10;;
82948;SDS011;72736;50.236;18.876;2024-01-07T16:53:10;34.70;;;12.20;;
82948;SDS011;72736;50.236;18.876;2024-01-07T16:58:19;25.80;;;9.70;;
82948;SDS011;72736;50.236;18.876;2024-01-07T17:03:30;18.80;;;7.30;;
82948;SDS011;72736;50.236;18.876;2024-01-07T17:08:35;24.70;;;9.10;;
82948;SDS011;72736;50.236;18.876;2024-01-07T17:13:42;10.40;;;4.50;;
82948;SDS011;72736;50.236;18.876;2024-01-07T17:18:52;14.60;;;6.40;;
82948;SDS011;72736;50.236;18.876;2024-01-07T17:24:00;11.90;;;5.40;;
82948;SDS011;72736;50.236;18.876;2024-01-07T17:29:13;14.30;;;5.60;;
82948;SDS011;72736;50.236;18.876;2024-01-07T17:34:21;19.80;;;6.90;;
82948;SDS011;72736;50.236;18.876;2024-01-07T17:39:27;27.40;;;11.80;;
82948;SDS011;72736;50.236;18.876;2024-01-07T17:44:38;19.40;;;7.10;;
82948;SDS011;72736;50.236;18.876;2024-01-07T17:49:46;14.10;;;6.60;;
82948;SDS011;72736;50.236;18.876;2024-01-07T17:54:53;16.10;;;8.20;;
82948;SDS011;72736;50.236;18.876;2024-01-07T18:00:00;17.50;;;8.20;;
82948;SDS011;72736;50.236;18.876;2024-01-07T18:05:09;18.60;;;7.90;;
82948;SDS011;72736;50.236;18.876;2024-01-07T18:10:20;21.30;;;9.20;;
82948;SDS011;72736;50.236;18.876;2024-01-07T18:15:26;20.20;;;7.60;;
82948;SDS011;72736;50.236;18.876;2024-01-07T18:20:36;26.00;;;9.20;;
82948;SDS011;72736;50.236;18.876;2024-01-07T18:25:42;13.00;;;5.90;;
82948;SDS011;72736;50.236;18.876;2024-01-07T18:30:53;19.70;;;8.10;;
82948;SDS011;72736;50.236;18.876;2024-01-07T18:36:00;7.40;;;3.40;;
82948;SDS011;72736;50.236;18.876;2024-01-07T18:41:16;15.30;;;6.20;;
82948;SDS011;72736;50.236;18.876;2024-01-07T18:46:29;20.10;;;7.20;;
82948;SDS011;72736;50.236;18.876;2024-01-07T18:51:40;20.70;;;8.90;;
82948;SDS011;72736;50.236;18.876;2024-01-07T18:56:49;17.90;;;7.70;;
82948;SDS011;72736;50.236;18.876;2024-01-07T19:01:55;18.20;;;7.70;;
82948;SDS011;72736;50.236;18.876;2024-01-07T19:07:04;19.00;;;8.50;;
82948;SDS011;72736;50.236;18.876;2024-01-07T19:12:12;11.40;;;5.00;;
82948;SDS011;72736;50.236;18.876;2024-01-07T19:17:21;16.90;;;7.40;;
82948;SDS011;72736;50.236;18.876;2024-01-07T19:22:28;15.10;;;5.70;;
82948;SDS011;72736;50.236;18.876;2024-01-07T19:27:35;13.30;;;6.10;;
82948;SDS011;72736;50.236;18.876;2024-01-07T19:32:44;23.60;;;9.40;;
82948;SDS011;72736;50.236;18.876;2024-01-07T19:37:51;13.10;;;5.60;;
82948;SDS011;72736;50.236;18.876;2024-01-07T19:42:58;29.80;;;9.10;;
82948;SDS011;72736;50.236;18.876;2024-01-07T19:48:04;19.10;;;8.70;;
82948;SDS011;72736;50.236;18.876;2024-01-07T19:53:10;28.00;;;11.80;;
82948;SDS011;72736;50.236;18.876;2024-01-07T19:58:29;13.50;;;6.10;;
82948;SDS011;72736;50.236;18.876;2024-01-07T20:03:34;23.60;;;9.80;;
82948;SDS011;72736;50.236;18.876;2024-01-07T20:08:44;28.00;;;10.40;;
82948;SDS011;72736;50.236;18.876;2024-01-07T20:13:52;24.80;;;9.00;;
82948;SDS011;72736;50.236;18.876;2024-01-07T20:18:58;33.30;;;12.80;;
82948;SDS011;72736;50.236;18.876;2024-01-07T20:24:05;16.20;;;7.20;;
82948;SDS011;72736;50.236;18.876;2024-01-07T20:29:12;20.00;;;7.90;;
82948;SDS011;72736;50.236;18.876;2024-01-07T20:34:20;20.70;;;10.20;;
82948;SDS011;72736;50.236;18.876;2024-01-07T20:39:26;15.00;;;6.50;;
82948;SDS011;72736;50.236;18.876;2024-01-07T20:44:33;15.10;;;6.80;;
82948;SDS011;72736;50.236;18.876;2024-01-07T20:49:39;28.70;;;10.00;;
82948;SDS011;72736;50.236;18.876;2024-01-07T20:54:44;23.90;;;8.70;;
82948;SDS011;72736;50.236;18.876;2024-01-07T20:59:50;23.30;;;8.60;;
82948;SDS011;72736;50.236;18.876;2024-01-07T21:04:56;22.00;;;8.80;;
82948;SDS011;72736;50.236;18.876;2024-01-07T21:10:04;31.80;;;10.30;;
82948;SDS011;72736;50.236;18.876;2024-01-07T21:15:11;28.20;;;9.70;;
82948;SDS011;72736;50.236;18.876;2024-01-07T21:20:17;25.60;;;9.10;;
82948;SDS011;72736;50.236;18.876;2024-01-07T21:25:23;19.90;;;8.40;;
82948;SDS011;72736;50.236;18.876;2024-01-07T21:30:34;31.10;;;11.40;;
82948;SDS011;72736;50.236;18.876;2024-01-07T21:35:40;27.10;;;10.70;;
82948;SDS011;72736;50.236;18.876;2024-01-07T21:40:47;15.50;;;6.80;;
82948;SDS011;72736;50.236;18.876;2024-01-07T21:45:56;23.60;;;8.50;;
82948;SDS011;72736;50.236;18.876;2024-01-07T21:51:03;19.20;;;6.70;;
82948;SDS011;72736;50.236;18.876;2024-01-07T21:56:10;28.30;;;10.40;;
82948;SDS011;72736;50.236;18.876;2024-01-07T22:01:16;27.30;;;11.60;;
82948;SDS011;72736;50.236;18.876;2024-01-07T22:06:22;30.90;;;10.90;;
82948;SDS011;72736;50.236;18.876;2024-01-07T22:11:31;34.80;;;10.90;;
82948;SDS011;72736;50.236;18.876;2024-01-07T22:16:36;34.40;;;11.80;;
82948;SDS011;72736;50.236;18.876;2024-01-07T22:21:42;14.60;;;5.40;;
82948;SDS011;72736;50.236;18.876;2024-01-07T22:26:48;25.90;;;11.10;;
82948;SDS011;72736;50.236;18.876;2024-01-07T22:31:54;23.50;;;8.90;;
82948;SDS011;72736;50.236;18.876;2024-01-07T22:37:03;30.60;;;10.60;;
82948;SDS011;72736;50.236;18.876;2024-01-07T22:42:09;23.50;;;8.20;;
82948;SDS011;72736;50.236;18.876;2024-01-07T22:47:14;35.30;;;12.70;;
82948;SDS011;72736;50.236;18.876;2024-01-07T22:52:21;30.80;;;11.60;;
82948;SDS011;72736;50.236;18.876;2024-01-07T22:57:28;41.00;;;15.60;;
82948;SDS011;72736;50.236;18.876;2024-01-07T23:02:33;60.10;;;16.00;;
82948;SDS011;72736;50.236;18.876;2024-01-07T23:07:40;24.30;;;9.70;;
82948;SDS011;72736;50.236;18.876;2024-01-07T23:12:47;52.40;;;15.80;;
82948;SDS011;72736;50.236;18.876;2024-01-07T23:17:53;28.80;;;10.10;;
82948;SDS011;72736;50.236;18.876;2024-01-07T23:23:00;24.20;;;8.10;;
82948;SDS011;72736;50.236;18.876;2024-01-07T23:28:06;32.60;;;12.00;;
82948;SDS011;72736;50.236;18.876;2024-01-07T23:33:17;22.50;;;8.30;;
82948;SDS011;72736;50.236;18.876;2024-01-07T23:38:23;28.40;;;11.50;;
82948;SDS011;72736;50.236;18.876;2024-01-07T23:43:30;16.30;;;6.40;;
82948;SDS011;72736;50.236;18.876;2024-01-07T23:48:37;22.10;;;9.60;;
82948;SDS011;72736;50.236;18.876;2024-01-07T23:53:43;23.80;;;10.10;;
82948;SDS011;72736;50.236;18.876;2024-01-07T23:58:49;18.70;;;8.20;;
